MDT,Max TemperatureF,Mean TemperatureF,Min TemperatureF,Max Dew PointF,MeanDew PointF,Min DewpointF,Max Humidity, Mean Humidity, Min Humidity, Max Sea Level PressureIn, Mean Sea Level PressureIn, Min Sea Level PressureIn, Max VisibilityMiles, Mean VisibilityMiles, Min VisibilityMiles, Max Wind SpeedMPH, Mean Wind SpeedMPH, Max Gust SpeedMPH,PrecipitationIn, CloudCover, Events, WindDirDegrees
2013-3-1,37,28,18,27,22,16,88,76,64,30.61,30.51,30.38,10,8,2,7,2,8,0.01,8,Snow,106
2013-3-2,43,27,10,24,16,7,92,71,49,30.65,30.48,30.25,10,6,0,9,2,13,0.00,1,Fog,112
2013-3-3,41,32,22,32,26,18,96,75,54,30.22,29.96,29.84,10,9,4,10,1,13,0.07,7,Rain-Snow,202
2013-3-4,35,19,2,31,20,-1,92,69,46,30.48,30.00,29.83,10,5,0,22,4,28,0.06,7,Fog-Rain-Snow,305
2013-3-5,37,16,-5,11,3,-8,79,57,35,30.63,30.46,30.32,10,10,10,15,5,20,0.00,0,,91
2013-3-6,47,25,3,25,14,0,76,57,38,30.30,30.12,29.98,10,10,10,10,3,15,0.00,0,,212
2013-3-7,45,32,19,27,20,14,88,67,45,30.10,30.02,29.95,10,10,10,12,2,15,0.00,0,,70
2013-3-8,48,34,19,31,23,14,81,61,41,29.98,29.84,29.67,10,10,6,10,3,13,0.01,4,Rain,230
2013-3-9,37,28,18,31,26,12,89,69,49,30.24,29.78,29.65,10,6,0,24,7,32,0.30,7,Fog-Rain-Snow,297
2013-3-10,36,25,14,19,14,9,80,62,44,30.41,30.34,30.16,10,10,10,12,3,18,0.00,3,,200
2013-3-11,42,29,16,29,20,11,80,63,46,30.34,30.24,30.13,10,10,10,23,6,30,T,7,,260
2013-3-12,44,37,29,30,28,26,89,71,53,30.35,30.27,30.17,10,10,9,20,5,22,T,6,Rain,202
2013-3-13,48,34,20,30,24,17,92,71,49,30.48,30.43,30.35,10,10,10,8,2,9,0.00,0,,103
2013-3-14,52,37,21,29,24,17,84,60,35,30.52,30.41,30.32,10,10,8,8,1,8,0.00,0,,105
2013-3-15,53,40,26,33,28,22,85,66,46,30.29,30.13,30.01,10,10,10,12,2,13,0.00,2,,172
2013-3-16,52,41,29,32,28,25,92,66,39,30.02,29.94,29.87,10,10,10,17,3,25,T,5,Rain,210
2013-3-17,47,36,25,29,21,6,85,59,33,29.98,29.78,29.67,10,10,10,37,13,47,T,5,,282
2013-3-18,42,31,20,19,15,8,68,54,40,30.10,30.04,29.99,10,10,9,28,8,33,T,5,,258
2013-3-19,45,34,22,19,11,-1,74,45,16,30.35,30.25,30.07,10,10,10,18,5,22,0.00,0,,222
2013-3-20,48,34,19,29,18,11,73,52,30,30.30,30.09,29.83,10,10,10,16,4,26,0.00,5,,78
2013-3-21,42,32,22,32,25,12,89,63,37,30.03,29.80,29.64,10,7,0,32,9,48,0.09,7,Fog-Rain-Snow,284
2013-3-22,31,24,17,21,17,9,88,69,50,30.02,29.88,29.78,10,5,0,16,4,21,0.10,7,Fog-Snow,305
2013-3-23,27,20,13,16,11,4,84,65,46,30.28,29.98,29.81,10,6,1,18,8,23,T,7,Snow,251
2013-3-24,27,19,10,12,9,5,88,63,38,30.35,30.23,30.06,,,,18,6,24,T,6,Snow,277
2013-3-25,33,18,2,11,5,-2,86,61,36,30.48,30.37,30.28,10,10,10,12,4,15,0.00,0,Rain,92
2013-3-26,45,31,17,26,17,6,67,52,37,30.26,30.10,29.99,10,10,10,17,5,21,0.00,6,,82
2013-3-27,55,41,27,31,29,26,92,65,38,30.12,30.05,29.97,10,8,1,13,5,15,0.03,3,Rain-Snow,156
2013-3-28,61,44,26,30,26,22,85,54,22,30.14,30.08,30.01,10,10,10,10,3,16,0.00,3,,99
2013-3-29,63,47,31,31,28,25,82,55,27,30.17,30.12,30.06,10,10,10,29,5,37,T,4,Rain,249
2013-3-30,61,45,28,32,28,24,85,56,27,30.23,30.15,30.06,10,10,10,28,6,36,T,4,Rain,276
2013-3-31,63,44,24,28,22,11,85,51,17,30.23,30.09,29.99,10,10,10,18,4,23,0.00,0,,275